Time;durP1;ratioP1;P1;durP2;ratioP2;P2;SDS_P1;SDS_P2;PMS_P1;PMS_P2;Temp;Humidity;BMP_temperature;BMP_pressure;BME280_temperature;BME280_humidity;BME280_pressure;Samples;Min_cycle;Max_cycle;Signal;HPM_P1;HPM_P2
2023/07/18 00:00:44;;;;;;;4.30;1.80;;;;;;;;;;5061900;28;20122;-85
2023/07/18 00:03:12;;;;;;;4.50;2.15;;;;;;;;;;5063969;28;20073;-85
2023/07/18 00:05:40;;;;;;;6.47;2.22;;;;;;;;;;5068909;28;20056;-85
2023/07/18 00:08:06;;;;;;;6.50;2.10;;;;;;;;;;5070861;28;20494;-85
2023/07/18 00:10:33;;;;;;;4.40;1.75;;;;;;;;;;5050941;28;20116;-85
2023/07/18 00:12:59;;;;;;;2.75;1.83;;;;;;;;;;5044781;28;20063;-85
2023/07/18 00:15:25;;;;;;;7.30;2.33;;;;;;;;;;5045342;28;20048;-85
2023/07/18 00:17:51;;;;;;;7.00;2.50;;;;;;;;;;5033630;28;20387;-85
2023/07/18 00:20:18;;;;;;;5.15;2.13;;;;;;;;;;5039792;28;20045;-85
2023/07/18 00:22:48;;;;;;;4.72;2.17;;;;;;;;;;5079241;28;20102;-85
2023/07/18 00:25:16;;;;;;;7.10;2.05;;;;;;;;;;5037900;28;20383;-85
2023/07/18 00:27:42;;;;;;;3.55;2.10;;;;;;;;;;5046501;28;20045;-85
2023/07/18 00:30:09;;;;;;;4.65;2.17;;;;;;;;;;5061426;28;20067;-85
2023/07/18 00:32:36;;;;;;;3.72;2.22;;;;;;;;;;5051380;28;20081;-85
2023/07/18 00:35:04;;;;;;;3.22;2.13;;;;;;;;;;5040989;28;20474;-86
2023/07/18 00:37:30;;;;;;;3.17;2.13;;;;;;;;;;5077956;28;20045;-85
2023/07/18 00:39:56;;;;;;;7.38;2.45;;;;;;;;;;5077966;28;20431;-85
2023/07/18 00:42:22;;;;;;;2.95;1.83;;;;;;;;;;5033732;28;20045;-86
2023/07/18 00:44:51;;;;;;;3.95;2.10;;;;;;;;;;5028928;28;20401;-85
2023/07/18 00:47:24;;;;;;;3.13;1.88;;;;;;;;;;5032478;28;20040;-85
2023/07/18 00:49:51;;;;;;;4.25;2.58;;;;;;;;;;5037089;28;20049;-86
2023/07/18 00:52:17;;;;;;;3.92;2.40;;;;;;;;;;5040271;28;20041;-85
2023/07/18 00:54:45;;;;;;;3.42;2.47;;;;;;;;;;5036313;28;20128;-85
2023/07/18 00:57:12;;;;;;;3.28;2.00;;;;;;;;;;5047523;28;20071;-85
2023/07/18 00:59:38;;;;;;;5.63;2.65;;;;;;;;;;5039044;28;20080;-85
2023/07/18 01:02:05;;;;;;;4.57;1.73;;;;;;;;;;5051959;28;20421;-85
2023/07/18 01:04:32;;;;;;;3.92;2.42;;;;;;;;;;5043781;28;20123;-85
2023/07/18 01:06:58;;;;;;;2.90;2.20;;;;;;;;;;5057630;28;20072;-85
2023/07/18 01:09:24;;;;;;;3.45;1.95;;;;;;;;;;5042268;28;20140;-84
2023/07/18 01:11:50;;;;;;;4.45;1.77;;;;;;;;;;5063882;28;20502;-85
2023/07/18 01:14:17;;;;;;;4.72;2.28;;;;;;;;;;5047563;28;20052;-85
2023/07/18 01:16:43;;;;;;;6.40;2.00;;;;;;;;;;5048887;28;20594;-85
2023/07/18 01:19:09;;;;;;;3.95;2.08;;;;;;;;;;5048448;28;20056;-85
2023/07/18 01:21:36;;;;;;;4.82;2.03;;;;;;;;;;5036549;28;20045;-85
2023/07/18 01:24:02;;;;;;;5.38;1.98;;;;;;;;;;5041236;28;20129;-85
2023/07/18 01:26:28;;;;;;;4.53;1.80;;;;;;;;;;5036794;28;20042;-84
2023/07/18 01:28:54;;;;;;;3.35;2.30;;;;;;;;;;5040923;28;20124;-85
2023/07/18 01:31:20;;;;;;;5.72;2.25;;;;;;;;;;5047988;28;20115;-85
2023/07/18 01:33:46;;;;;;;3.92;2.55;;;;;;;;;;5029952;28;20037;-85
2023/07/18 01:36:12;;;;;;;3.92;2.20;;;;;;;;;;5046513;28;20114;-85
2023/07/18 01:38:38;;;;;;;4.82;2.47;;;;;;;;;;5027132;28;20088;-85
2023/07/18 01:41:07;;;;;;;4.10;2.30;;;;;;;;;;5032394;28;20076;-85
2023/07/18 01:43:34;;;;;;;4.53;2.10;;;;;;;;;;5046294;28;20410;-85
2023/07/18 01:46:01;;;;;;;3.25;2.05;;;;;;;;;;5046499;28;20037;-85
2023/07/18 01:48:27;;;;;;;3.78;2.00;;;;;;;;;;5046929;28;20041;-85
2023/07/18 01:50:53;;;;;;;4.28;2.50;;;;;;;;;;5045488;28;20088;-85
2023/07/18 01:53:20;;;;;;;3.65;2.20;;;;;;;;;;5059591;28;20120;-85
2023/07/18 01:55:46;;;;;;;4.63;2.28;;;;;;;;;;5060519;28;20050;-85
2023/07/18 01:58:12;;;;;;;8.40;2.85;;;;;;;;;;5028493;28;20080;-85
2023/07/18 02:00:38;;;;;;;4.85;2.08;;;;;;;;;;5043354;28;20096;-85
2023/07/18 02:03:05;;;;;;;5.55;2.42;;;;;;;;;;5032614;28;20056;-85
2023/07/18 02:05:31;;;;;;;7.97;2.75;;;;;;;;;;5042088;28;20045;-85
2023/07/18 02:07:58;;;;;;;5.22;2.60;;;;;;;;;;5027079;28;20099;-85
2023/07/18 02:10:24;;;;;;;11.43;3.10;;;;;;;;;;5028057;28;20042;-85
2023/07/18 02:12:51;;;;;;;3.53;2.38;;;;;;;;;;5062983;28;20434;-85
2023/07/18 02:15:17;;;;;;;4.78;2.50;;;;;;;;;;5029451;28;20049;-85
2023/07/18 02:17:43;;;;;;;7.30;2.83;;;;;;;;;;5049000;28;20111;-85
2023/07/18 02:20:11;;;;;;;4.47;2.25;;;;;;;;;;5041569;28;20387;-85
2023/07/18 02:22:38;;;;;;;5.10;2.40;;;;;;;;;;5029642;28;20358;-85
2023/07/18 02:25:04;;;;;;;6.38;2.88;;;;;;;;;;5032317;28;20038;-85
2023/07/18 02:27:34;;;;;;;5.00;2.20;;;;;;;;;;5064196;28;20487;-85
2023/07/18 02:30:01;;;;;;;7.20;3.53;;;;;;;;;;5043886;28;20049;-85
2023/07/18 02:32:29;;;;;;;6.00;2.72;;;;;;;;;;5040528;28;20037;-84
2023/07/18 02:34:55;;;;;;;5.63;3.15;;;;;;;;;;5039258;28;20102;-85
2023/07/18 02:37:23;;;;;;;6.80;2.72;;;;;;;;;;5045626;28;20033;-85
2023/07/18 02:39:49;;;;;;;4.63;2.35;;;;;;;;;;5062281;28;20076;-85
2023/07/18 02:42:17;;;;;;;6.65;2.70;;;;;;;;;;5064206;28;20053;-85
2023/07/18 02:44:43;;;;;;;4.80;2.53;;;;;;;;;;5031066;28;20077;-84
2023/07/18 02:47:09;;;;;;;3.97;2.10;;;;;;;;;;5037220;28;20042;-85
2023/07/18 02:49:35;;;;;;;5.53;2.58;;;;;;;;;;5049908;28;20041;-84
2023/07/18 02:52:02;;;;;;;6.07;2.63;;;;;;;;;;5073879;28;20116;-85
2023/07/18 02:54:29;;;;;;;4.55;2.33;;;;;;;;;;5050543;28;20052;-84
2023/07/18 02:56:56;;;;;;;6.57;2.13;;;;;;;;;;5070376;28;20512;-84
2023/07/18 02:59:22;;;;;;;5.50;2.88;;;;;;;;;;5033715;28;20053;-86
2023/07/18 03:01:54;;;;;;;7.50;2.45;;;;;;;;;;5028603;28;20049;-85
2023/07/18 03:04:20;;;;;;;5.57;2.42;;;;;;;;;;5034205;28;20116;-86
2023/07/18 03:06:47;;;;;;;3.65;2.95;;;;;;;;;;5045066;28;20390;-86
2023/07/18 03:09:17;;;;;;;5.38;2.75;;;;;;;;;;5040734;28;20394;-86
2023/07/18 03:11:43;;;;;;;4.60;2.13;;;;;;;;;;5071358;28;20044;-86
2023/07/18 03:14:11;;;;;;;3.90;2.83;;;;;;;;;;5041110;28;20081;-86
2023/07/18 03:16:40;;;;;;;7.10;3.05;;;;;;;;;;5072778;28;20120;-86
2023/07/18 03:19:07;;;;;;;7.30;2.83;;;;;;;;;;5050146;28;20060;-86
2023/07/18 03:21:33;;;;;;;6.50;2.58;;;;;;;;;;5034776;28;20513;-86
2023/07/18 03:23:59;;;;;;;4.22;2.58;;;;;;;;;;5030204;28;20383;-86
2023/07/18 03:26:25;;;;;;;5.63;2.53;;;;;;;;;;5073931;28;20061;-85
2023/07/18 03:28:52;;;;;;;5.72;2.67;;;;;;;;;;5045988;28;20044;-85
2023/07/18 03:31:18;;;;;;;4.75;2.30;;;;;;;;;;5037386;28;20559;-86
2023/07/18 03:33:44;;;;;;;4.78;2.58;;;;;;;;;;5062129;28;20042;-86
2023/07/18 03:36:10;;;;;;;6.45;2.80;;;;;;;;;;5046037;28;20060;-86
2023/07/18 03:38:36;;;;;;;3.65;2.33;;;;;;;;;;5069099;28;20037;-85
2023/07/18 03:41:02;;;;;;;7.03;3.50;;;;;;;;;;5048108;28;20132;-86
2023/07/18 03:43:28;;;;;;;5.60;2.45;;;;;;;;;;5049073;28;20179;-86
2023/07/18 03:45:54;;;;;;;5.03;2.17;;;;;;;;;;5041526;28;20045;-86
2023/07/18 03:48:22;;;;;;;5.28;2.25;;;;;;;;;;5073068;28;20044;-85
2023/07/18 03:50:48;;;;;;;5.38;3.70;;;;;;;;;;5047907;28;20056;-86
2023/07/18 03:53:14;;;;;;;4.75;2.50;;;;;;;;;;5046194;28;20037;-85
2023/07/18 03:55:40;;;;;;;5.05;2.47;;;;;;;;;;5055474;28;20042;-86
2023/07/18 03:58:06;;;;;;;6.20;2.75;;;;;;;;;;5038204;28;20041;-86
2023/07/18 04:00:32;;;;;;;3.83;2.22;;;;;;;;;;5059976;28;20054;-86
2023/07/18 04:02:58;;;;;;;3.75;2.42;;;;;;;;;;5043332;28;20501;-85
2023/07/18 04:05:24;;;;;;;8.13;3.38;;;;;;;;;;5047116;28;20049;-86
2023/07/18 04:07:51;;;;;;;4.95;2.40;;;;;;;;;;5047281;28;20056;-86
2023/07/18 04:10:17;;;;;;;5.35;2.53;;;;;;;;;;5029624;28;20050;-86
2023/07/18 04:12:44;;;;;;;7.38;2.05;;;;;;;;;;5038081;28;20049;-86
2023/07/18 04:15:11;;;;;;;4.93;2.60;;;;;;;;;;5049587;28;20037;-85
2023/07/18 04:17:38;;;;;;;3.85;2.08;;;;;;;;;;5037172;28;20041;-86
2023/07/18 04:20:05;;;;;;;3.75;2.03;;;;;;;;;;5029018;28;20059;-86
2023/07/18 04:22:32;;;;;;;8.07;2.80;;;;;;;;;;5028652;28;20120;-86
2023/07/18 04:24:58;;;;;;;9.63;2.78;;;;;;;;;;5068849;28;20041;-86
2023/07/18 04:27:26;;;;;;;6.68;2.40;;;;;;;;;;5046268;28;20045;-86
2023/07/18 04:29:53;;;;;;;3.10;2.08;;;;;;;;;;5051228;28;20045;-86
2023/07/18 04:32:19;;;;;;;8.27;3.40;;;;;;;;;;5029275;28;20042;-86
2023/07/18 04:34:48;;;;;;;5.25;3.47;;;;;;;;;;5040786;28;20037;-86
2023/07/18 04:37:14;;;;;;;7.30;2.30;;;;;;;;;;5040439;28;20038;-86
2023/07/18 04:39:40;;;;;;;5.45;2.90;;;;;;;;;;5061138;28;20048;-86
2023/07/18 04:42:06;;;;;;;3.92;2.22;;;;;;;;;;5075065;28;20045;-87
2023/07/18 04:44:33;;;;;;;6.72;2.42;;;;;;;;;;5044148;28;20045;-86
2023/07/18 04:46:59;;;;;;;6.30;2.45;;;;;;;;;;5030857;28;20037;-86
2023/07/18 04:49:25;;;;;;;5.55;2.90;;;;;;;;;;5027704;28;20498;-86
2023/07/18 04:51:52;;;;;;;6.13;2.72;;;;;;;;;;5073678;28;20063;-86
2023/07/18 04:54:18;;;;;;;7.72;2.47;;;;;;;;;;5054501;28;20045;-86
2023/07/18 04:56:44;;;;;;;6.95;2.63;;;;;;;;;;5027627;28;20056;-86
2023/07/18 04:59:10;;;;;;;7.35;2.53;;;;;;;;;;5035792;28;20040;-86
2023/07/18 05:01:36;;;;;;;5.32;2.17;;;;;;;;;;5045417;28;20318;-86
2023/07/18 05:04:03;;;;;;;4.70;2.72;;;;;;;;;;5043089;28;20128;-86
2023/07/18 05:06:29;;;;;;;9.45;2.45;;;;;;;;;;5041174;28;20056;-86
2023/07/18 05:08:55;;;;;;;4.50;2.22;;;;;;;;;;5042471;28;20449;-86
2023/07/18 05:11:21;;;;;;;4.47;1.90;;;;;;;;;;5067159;28;20120;-85
2023/07/18 05:13:47;;;;;;;6.68;2.45;;;;;;;;;;5049801;28;20067;-86
2023/07/18 05:16:13;;;;;;;5.50;2.20;;;;;;;;;;5046231;28;20055;-87
2023/07/18 05:18:39;;;;;;;3.00;2.20;;;;;;;;;;5049236;28;20033;-84
2023/07/18 05:21:05;;;;;;;5.13;2.42;;;;;;;;;;5046138;28;20049;-84
2023/07/18 05:23:31;;;;;;;5.32;2.03;;;;;;;;;;5038893;28;20493;-85
2023/07/18 05:25:57;;;;;;;4.50;2.15;;;;;;;;;;5028734;28;20049;-86
2023/07/18 05:28:23;;;;;;;4.47;1.90;;;;;;;;;;5053918;28;20045;-86
2023/07/18 05:30:49;;;;;;;4.68;2.00;;;;;;;;;;5046217;28;20037;-87
2023/07/18 05:33:16;;;;;;;5.68;2.50;;;;;;;;;;5046675;28;20047;-86
2023/07/18 05:35:42;;;;;;;4.45;2.00;;;;;;;;;;5048542;28;20041;-83
2023/07/18 05:38:08;;;;;;;4.20;1.88;;;;;;;;;;5048250;28;20393;-84
2023/07/18 05:40:34;;;;;;;6.63;2.42;;;;;;;;;;5046109;28;20051;-85
2023/07/18 05:43:00;;;;;;;3.95;2.15;;;;;;;;;;5039853;28;20044;-84
2023/07/18 05:45:26;;;;;;;3.90;2.05;;;;;;;;;;5025979;28;20047;-84
2023/07/18 05:47:52;;;;;;;4.45;1.83;;;;;;;;;;5068181;28;20526;-86
2023/07/18 05:50:18;;;;;;;5.32;2.00;;;;;;;;;;5052158;28;20045;-86
2023/07/18 05:52:44;;;;;;;4.80;2.08;;;;;;;;;;5042925;28;20049;-86
2023/07/18 05:55:13;;;;;;;5.75;2.35;;;;;;;;;;5072701;28;20041;-86
2023/07/18 05:57:39;;;;;;;3.80;2.20;;;;;;;;;;5068260;28;20048;-86
2023/07/18 06:00:06;;;;;;;4.68;2.05;;;;;;;;;;5051594;28;20049;-86
2023/07/18 06:02:33;;;;;;;4.50;2.15;;;;;;;;;;5037425;28;20036;-86
2023/07/18 06:04:59;;;;;;;7.43;2.75;;;;;;;;;;5048689;28;20151;-86
2023/07/18 06:07:25;;;;;;;3.35;2.28;;;;;;;;;;5050139;28;20047;-87
2023/07/18 06:09:52;;;;;;;4.55;2.22;;;;;;;;;;5051826;28;20048;-86
2023/07/18 06:12:18;;;;;;;3.30;2.13;;;;;;;;;;5048554;28;20060;-87
2023/07/18 06:14:44;;;;;;;6.82;2.33;;;;;;;;;;5049699;28;20091;-84
2023/07/18 06:17:10;;;;;;;4.55;2.42;;;;;;;;;;5041397;28;20072;-81
2023/07/18 06:19:36;;;;;;;4.68;2.50;;;;;;;;;;5049743;28;20024;-82
2023/07/18 06:22:03;;;;;;;4.10;2.65;;;;;;;;;;5032430;28;20461;-83
2023/07/18 06:24:29;;;;;;;5.45;2.38;;;;;;;;;;5083423;28;20117;-83
2023/07/18 06:26:56;;;;;;;4.07;2.03;;;;;;;;;;5051509;28;20043;-84
2023/07/18 06:29:22;;;;;;;4.90;1.85;;;;;;;;;;5046585;28;20498;-83
2023/07/18 06:31:49;;;;;;;5.35;2.20;;;;;;;;;;5050995;28;20072;-85
2023/07/18 06:34:18;;;;;;;12.73;2.20;;;;;;;;;;5054891;28;20426;-83
2023/07/18 06:36:47;;;;;;;2.90;1.98;;;;;;;;;;5057910;28;20501;-83
2023/07/18 06:39:13;;;;;;;4.70;2.20;;;;;;;;;;5050891;28;20041;-84
2023/07/18 06:41:40;;;;;;;5.45;2.35;;;;;;;;;;5047391;28;20048;-85
2023/07/18 06:44:07;;;;;;;2.88;1.88;;;;;;;;;;5048559;28;20052;-85
2023/07/18 06:46:33;;;;;;;4.60;1.77;;;;;;;;;;5048838;28;20475;-84
2023/07/18 06:48:59;;;;;;;3.88;1.65;;;;;;;;;;5049802;28;20069;-83
2023/07/18 06:51:25;;;;;;;6.15;1.85;;;;;;;;;;5045508;28;20080;-81
2023/07/18 06:53:52;;;;;;;4.70;1.48;;;;;;;;;;5031397;28;20069;-82
2023/07/18 06:56:18;;;;;;;6.75;2.00;;;;;;;;;;5072969;28;20043;-81
2023/07/18 06:58:44;;;;;;;2.20;1.65;;;;;;;;;;5036362;28;20080;-81
2023/07/18 07:01:13;;;;;;;4.40;2.00;;;;;;;;;;5035892;28;20072;-86
2023/07/18 07:03:39;;;;;;;3.78;2.47;;;;;;;;;;5045687;28;20049;-84
2023/07/18 07:06:12;;;;;;;2.97;1.77;;;;;;;;;;5041672;28;20059;-83
2023/07/18 07:08:38;;;;;;;2.60;1.70;;;;;;;;;;5057570;28;20207;-83
2023/07/18 07:11:05;;;;;;;5.28;2.20;;;;;;;;;;5050408;28;20124;-85
2023/07/18 07:13:31;;;;;;;2.83;1.50;;;;;;;;;;5048037;28;20053;-86
2023/07/18 07:15:57;;;;;;;3.30;1.88;;;;;;;;;;5042631;28;20049;-85
2023/07/18 07:18:23;;;;;;;5.10;2.15;;;;;;;;;;5067734;28;20048;-89
2023/07/18 07:20:49;;;;;;;3.97;1.52;;;;;;;;;;5059710;28;20107;-91
2023/07/18 07:23:16;;;;;;;2.67;1.60;;;;;;;;;;5060834;28;20049;-91
2023/07/18 07:25:43;;;;;;;4.68;2.05;;;;;;;;;;5074948;28;20650;-91
2023/07/18 07:28:09;;;;;;;4.38;1.65;;;;;;;;;;5047865;28;20120;-88
2023/07/18 07:30:35;;;;;;;5.97;1.95;;;;;;;;;;5049146;28;20059;-87
2023/07/18 07:33:03;;;;;;;5.93;2.20;;;;;;;;;;5053506;28;21436;-84
2023/07/18 07:35:29;;;;;;;6.55;2.10;;;;;;;;;;5035725;28;20090;-83
2023/07/18 07:37:55;;;;;;;5.38;1.92;;;;;;;;;;5048444;28;20357;-83
2023/07/18 07:40:22;;;;;;;4.00;1.95;;;;;;;;;;5041028;28;20037;-82
2023/07/18 07:42:48;;;;;;;4.93;2.17;;;;;;;;;;5049415;28;20045;-84
2023/07/18 07:45:14;;;;;;;5.82;1.92;;;;;;;;;;5045482;28;20078;-84
2023/07/18 07:47:40;;;;;;;6.82;2.25;;;;;;;;;;5050115;28;20040;-83
2023/07/18 07:50:07;;;;;;;5.90;2.10;;;;;;;;;;5047051;28;20049;-84
2023/07/18 07:52:33;;;;;;;6.10;2.25;;;;;;;;;;5050535;28;20036;-83
2023/07/18 07:54:59;;;;;;;6.03;2.10;;;;;;;;;;5043943;28;20087;-84
2023/07/18 07:57:25;;;;;;;5.75;2.28;;;;;;;;;;5046301;28;20045;-83
2023/07/18 07:59:52;;;;;;;7.07;2.47;;;;;;;;;;5047583;28;20045;-84
2023/07/18 08:02:19;;;;;;;6.65;3.38;;;;;;;;;;5053283;28;20059;-84
2023/07/18 08:04:45;;;;;;;10.02;2.55;;;;;;;;;;5030904;28;20090;-85
2023/07/18 08:07:12;;;;;;;7.00;2.42;;;;;;;;;;5045693;28;20044;-84
2023/07/18 08:09:38;;;;;;;6.40;2.92;;;;;;;;;;5048151;28;20509;-84
2023/07/18 08:12:05;;;;;;;6.78;2.85;;;;;;;;;;5052096;28;20059;-83
2023/07/18 08:14:32;;;;;;;9.05;3.10;;;;;;;;;;5041398;28;20052;-83
2023/07/18 08:16:58;;;;;;;6.88;2.70;;;;;;;;;;5029285;28;20048;-84
2023/07/18 08:19:24;;;;;;;7.88;3.50;;;;;;;;;;5061874;28;20052;-85
2023/07/18 08:21:50;;;;;;;5.70;2.88;;;;;;;;;;5047686;28;20109;-85
2023/07/18 08:24:17;;;;;;;6.13;2.15;;;;;;;;;;5049807;28;20044;-84
2023/07/18 08:26:43;;;;;;;8.25;2.40;;;;;;;;;;5043430;28;20054;-84
2023/07/18 08:29:09;;;;;;;7.75;1.98;;;;;;;;;;5036666;28;20046;-85
2023/07/18 08:31:35;;;;;;;5.32;1.70;;;;;;;;;;5050762;28;20082;-84
2023/07/18 08:34:01;;;;;;;4.53;1.70;;;;;;;;;;5047945;28;20485;-84
2023/07/18 08:36:29;;;;;;;3.85;1.80;;;;;;;;;;5044306;28;20037;-82
2023/07/18 08:38:55;;;;;;;5.13;1.45;;;;;;;;;;5051834;28;20057;-87
2023/07/18 08:41:21;;;;;;;6.13;1.50;;;;;;;;;;5050678;28;20048;-84
2023/07/18 08:43:48;;;;;;;4.00;1.70;;;;;;;;;;5049291;28;20394;-83
2023/07/18 08:46:15;;;;;;;4.60;1.92;;;;;;;;;;5044541;28;20045;-83
2023/07/18 08:48:41;;;;;;;6.38;1.98;;;;;;;;;;5027304;28;20076;-83
2023/07/18 08:51:07;;;;;;;5.22;1.27;;;;;;;;;;5044887;28;20040;-84
2023/07/18 08:53:34;;;;;;;5.57;1.40;;;;;;;;;;5041103;28;20084;-81
2023/07/18 08:56:00;;;;;;;6.60;1.52;;;;;;;;;;5042330;28;20047;-84
2023/07/18 08:58:27;;;;;;;5.53;1.48;;;;;;;;;;5055965;28;20166;-84
2023/07/18 09:00:53;;;;;;;11.73;2.45;;;;;;;;;;5063607;28;20147;-83
2023/07/18 09:03:19;;;;;;;4.35;1.50;;;;;;;;;;5051586;28;20033;-84
2023/07/18 09:05:45;;;;;;;7.32;1.63;;;;;;;;;;5045004;28;20048;-84
2023/07/18 09:08:11;;;;;;;4.05;1.70;;;;;;;;;;5038683;28;20475;-84
2023/07/18 09:10:37;;;;;;;5.45;1.42;;;;;;;;;;5036413;28;20427;-84
2023/07/18 09:13:07;;;;;;;4.28;1.55;;;;;;;;;;5030576;28;20131;-84
2023/07/18 09:15:34;;;;;;;4.47;1.42;;;;;;;;;;5035432;28;20077;-84
2023/07/18 09:18:01;;;;;;;4.30;1.60;;;;;;;;;;5034094;28;20066;-83
2023/07/18 09:20:29;;;;;;;3.42;1.17;;;;;;;;;;5068447;28;20052;-85
2023/07/18 09:22:59;;;;;;;3.08;1.33;;;;;;;;;;5067355;28;20504;-84
2023/07/18 09:25:26;;;;;;;3.25;1.17;;;;;;;;;;5072018;28;20040;-84
2023/07/18 09:27:52;;;;;;;4.15;1.10;;;;;;;;;;5065816;28;20063;-84
2023/07/18 09:30:28;;;;;;;3.38;0.93;;;;;;;;;;5077606;28;20064;-82
2023/07/18 09:32:54;;;;;;;4.68;1.10;;;;;;;;;;5045847;28;20097;-82
2023/07/18 09:35:20;;;;;;;2.60;0.93;;;;;;;;;;5057142;28;20033;-83
2023/07/18 09:37:47;;;;;;;5.20;1.48;;;;;;;;;;5046168;28;20052;-82
2023/07/18 09:40:14;;;;;;;3.55;1.05;;;;;;;;;;5050100;28;20127;-84
2023/07/18 09:42:42;;;;;;;2.10;0.85;;;;;;;;;;5036086;28;20528;-83
2023/07/18 09:45:08;;;;;;;2.65;0.88;;;;;;;;;;5045672;28;20045;-85
2023/07/18 09:47:35;;;;;;;2.55;1.08;;;;;;;;;;5050950;28;20105;-85
2023/07/18 09:50:01;;;;;;;3.67;1.55;;;;;;;;;;5048136;28;20564;-84
2023/07/18 09:52:27;;;;;;;2.05;1.30;;;;;;;;;;5070937;28;20045;-85
2023/07/18 09:54:53;;;;;;;4.32;1.63;;;;;;;;;;5052093;28;20083;-86
2023/07/18 09:57:20;;;;;;;3.85;1.00;;;;;;;;;;5048604;28;20045;-88
2023/07/18 09:59:48;;;;;;;3.53;1.05;;;;;;;;;;5051697;28;20049;-83
2023/07/18 10:02:15;;;;;;;3.55;1.10;;;;;;;;;;5063938;28;20532;-88
2023/07/18 10:04:41;;;;;;;1.15;0.75;;;;;;;;;;5060763;28;20052;-83
2023/07/18 10:07:11;;;;;;;2.33;0.80;;;;;;;;;;5055891;28;20194;-81
2023/07/18 10:09:37;;;;;;;5.40;1.13;;;;;;;;;;5051816;28;20383;-82
2023/07/18 10:12:03;;;;;;;3.03;0.93;;;;;;;;;;5051169;28;20476;-83
2023/07/18 10:14:29;;;;;;;3.28;0.90;;;;;;;;;;5051869;28;20044;-84
2023/07/18 10:16:55;;;;;;;1.80;0.68;;;;;;;;;;5050681;28;20099;-85
2023/07/18 10:19:24;;;;;;;3.35;0.90;;;;;;;;;;5044333;28;20041;-82
2023/07/18 10:21:52;;;;;;;1.75;0.73;;;;;;;;;;5039974;28;20049;-83
2023/07/18 10:24:21;;;;;;;2.53;0.70;;;;;;;;;;5053444;28;20045;-82
2023/07/18 10:26:48;;;;;;;2.50;0.80;;;;;;;;;;5051761;28;20037;-86
2023/07/18 10:29:14;;;;;;;3.75;1.20;;;;;;;;;;5050595;28;20041;-84
2023/07/18 10:31:40;;;;;;;2.03;1.10;;;;;;;;;;5052280;28;20502;-83
2023/07/18 10:34:09;;;;;;;3.00;0.70;;;;;;;;;;5053068;28;20421;-83
2023/07/18 10:36:35;;;;;;;2.53;0.70;;;;;;;;;;5031786;28;20045;-85
2023/07/18 10:39:06;;;;;;;1.77;0.95;;;;;;;;;;5031730;28;20065;-86
2023/07/18 10:41:32;;;;;;;1.77;0.73;;;;;;;;;;5030020;28;20045;-82
2023/07/18 10:43:58;;;;;;;1.30;0.80;;;;;;;;;;5034643;28;20044;-83
2023/07/18 10:46:34;;;;;;;1.17;0.63;;;;;;;;;;5063884;28;20049;-86
2023/07/18 10:49:00;;;;;;;;;;;;;;;;;;5046321;28;20041;-85
2023/07/18 10:51:29;;;;;;;1.85;0.50;;;;;;;;;;5050840;28;19921;-84
2023/07/18 10:53:55;;;;;;;2.78;0.73;;;;;;;;;;5049679;28;20048;-84
2023/07/18 10:56:24;;;;;;;2.65;0.65;;;;;;;;;;5050961;28;20033;-83
2023/07/18 10:58:51;;;;;;;3.47;0.75;;;;;;;;;;5049602;28;20056;-86
2023/07/18 11:01:17;;;;;;;3.08;1.08;;;;;;;;;;5032825;28;20099;-82
2023/07/18 11:03:47;;;;;;;2.58;0.90;;;;;;;;;;5031457;28;20089;-81
2023/07/18 11:06:14;;;;;;;3.10;0.77;;;;;;;;;;5039080;28;20033;-86
2023/07/18 11:08:45;;;;;;;2.63;0.80;;;;;;;;;;5048856;28;20045;-85
2023/07/18 11:11:11;;;;;;;2.03;0.60;;;;;;;;;;5060278;28;20086;-89
2023/07/18 11:13:39;;;;;;;1.95;0.60;;;;;;;;;;5034832;28;20133;-88
2023/07/18 11:16:09;;;;;;;1.30;0.60;;;;;;;;;;5050095;28;20055;-93
2023/07/18 11:18:36;;;;;;;1.08;0.47;;;;;;;;;;5030036;28;20040;-91
2023/07/18 11:21:05;;;;;;;2.15;0.80;;;;;;;;;;5039123;28;20072;-90
2023/07/18 11:23:32;;;;;;;4.00;1.20;;;;;;;;;;5051637;28;20060;-91
2023/07/18 11:25:58;;;;;;;1.85;0.88;;;;;;;;;;5051560;28;20044;-90
2023/07/18 11:28:34;;;;;;;2.08;0.60;;;;;;;;;;5051746;28;20102;-94
2023/07/18 11:31:00;;;;;;;1.77;0.80;;;;;;;;;;5049571;28;20044;-94
2023/07/18 11:33:32;;;;;;;1.08;0.60;;;;;;;;;;5055418;28;20032;-93
2023/07/18 11:35:59;;;;;;;2.03;0.43;;;;;;;;;;5057030;28;20045;-89
2023/07/18 11:38:29;;;;;;;1.00;0.40;;;;;;;;;;5047629;28;20040;-90
2023/07/18 11:40:55;;;;;;;1.30;0.80;;;;;;;;;;5047514;28;20052;-91
2023/07/18 11:43:21;;;;;;;2.05;0.70;;;;;;;;;;5051627;28;20052;-91
2023/07/18 11:45:47;;;;;;;1.73;1.05;;;;;;;;;;5045636;28;20049;-84
2023/07/18 11:48:14;;;;;;;2.17;0.80;;;;;;;;;;5049676;28;20090;-84
2023/07/18 11:50:43;;;;;;;1.55;0.60;;;;;;;;;;5053038;28;20040;-87
2023/07/18 11:53:10;;;;;;;1.17;0.65;;;;;;;;;;5048989;28;20094;-85
2023/07/18 11:55:36;;;;;;;1.60;0.65;;;;;;;;;;5048593;28;20065;-86
2023/07/18 11:58:07;;;;;;;0.80;0.35;;;;;;;;;;5050511;28;20666;-84
2023/07/18 12:00:35;;;;;;;2.38;0.60;;;;;;;;;;5045919;28;20110;-86
2023/07/18 12:03:01;;;;;;;2.92;0.63;;;;;;;;;;5062322;28;20045;-85
2023/07/18 12:05:27;;;;;;;2.20;0.50;;;;;;;;;;5043119;28;20132;-84
2023/07/18 12:07:53;;;;;;;1.13;0.40;;;;;;;;;;5048942;28;20060;-85
2023/07/18 12:10:21;;;;;;;1.20;0.40;;;;;;;;;;5048476;28;20041;-83
2023/07/18 12:12:47;;;;;;;2.08;0.88;;;;;;;;;;5048127;28;20057;-86
2023/07/18 12:15:13;;;;;;;1.02;0.38;;;;;;;;;;5045786;28;20071;-84
2023/07/18 12:17:40;;;;;;;1.30;0.55;;;;;;;;;;5039059;28;20060;-84
2023/07/18 12:20:06;;;;;;;1.60;0.50;;;;;;;;;;5051711;28;20123;-87
2023/07/18 12:22:33;;;;;;;0.45;0.40;;;;;;;;;;5058736;28;20123;-85
2023/07/18 12:25:03;;;;;;;0.65;0.45;;;;;;;;;;5050188;28;20453;-83
2023/07/18 12:27:30;;;;;;;1.58;0.60;;;;;;;;;;5051128;28;20048;-86
2023/07/18 12:29:56;;;;;;;1.83;0.45;;;;;;;;;;5040174;28;20430;-86
2023/07/18 12:32:22;;;;;;;1.35;0.60;;;;;;;;;;5029145;28;20042;-84
2023/07/18 12:34:48;;;;;;;1.48;0.57;;;;;;;;;;5052670;28;20047;-86
2023/07/18 12:37:14;;;;;;;1.42;0.60;;;;;;;;;;5049510;28;20045;-83
2023/07/18 12:39:40;;;;;;;0.73;0.35;;;;;;;;;;5047480;28;20394;-85
2023/07/18 12:42:06;;;;;;;2.55;0.70;;;;;;;;;;5047941;28;20076;-85
2023/07/18 12:44:39;;;;;;;1.27;0.40;;;;;;;;;;5046835;28;20461;-86
2023/07/18 12:47:06;;;;;;;1.40;0.45;;;;;;;;;;5049262;28;20079;-86
2023/07/18 12:49:33;;;;;;;0.98;0.38;;;;;;;;;;5044786;28;20072;-87
2023/07/18 12:51:59;;;;;;;1.35;0.60;;;;;;;;;;5047668;28;20045;-87
2023/07/18 12:54:26;;;;;;;1.55;0.63;;;;;;;;;;5047498;28;20036;-88
2023/07/18 12:56:52;;;;;;;2.08;0.75;;;;;;;;;;5044899;28;20121;-84
2023/07/18 12:59:18;;;;;;;0.95;0.40;;;;;;;;;;5044189;28;20036;-85
2023/07/18 13:01:44;;;;;;;0.40;0.30;;;;;;;;;;5047073;28;20139;-84
2023/07/18 13:04:10;;;;;;;1.42;0.43;;;;;;;;;;5036980;28;20367;-85
2023/07/18 13:06:36;;;;;;;1.65;0.45;;;;;;;;;;5028603;28;20099;-86
2023/07/18 13:09:02;;;;;;;1.65;0.60;;;;;;;;;;5048447;28;20041;-84
2023/07/18 13:11:29;;;;;;;0.28;0.28;;;;;;;;;;5049317;28;20375;-86
2023/07/18 13:13:55;;;;;;;1.52;0.47;;;;;;;;;;5039672;28;20056;-88
2023/07/18 13:16:22;;;;;;;3.25;0.85;;;;;;;;;;5048239;28;20052;-90
2023/07/18 13:18:48;;;;;;;8.98;1.02;;;;;;;;;;5044768;28;20053;-87
2023/07/18 13:21:15;;;;;;;2.15;0.80;;;;;;;;;;5040177;28;20053;-86
2023/07/18 13:23:41;;;;;;;8.70;1.67;;;;;;;;;;5046873;28;20052;-83
2023/07/18 13:26:10;;;;;;;2.40;0.70;;;;;;;;;;5048272;28;20048;-84
2023/07/18 13:28:36;;;;;;;2.13;0.80;;;;;;;;;;5052614;28;20120;-89
2023/07/18 13:31:02;;;;;;;3.05;1.13;;;;;;;;;;5050444;28;20047;-86
2023/07/18 13:33:28;;;;;;;4.05;1.00;;;;;;;;;;5040274;28;20191;-82
2023/07/18 13:35:54;;;;;;;3.22;1.00;;;;;;;;;;5053401;28;20500;-85
2023/07/18 13:38:20;;;;;;;3.35;0.80;;;;;;;;;;5047259;28;20120;-85
2023/07/18 13:40:46;;;;;;;4.35;1.10;;;;;;;;;;5047239;28;20049;-86
2023/07/18 13:43:12;;;;;;;3.42;1.10;;;;;;;;;;5038760;28;20122;-87
2023/07/18 13:45:38;;;;;;;2.90;0.82;;;;;;;;;;5054905;28;20048;-85
2023/07/18 13:48:05;;;;;;;3.90;1.35;;;;;;;;;;5052233;28;20037;-86
2023/07/18 13:50:31;;;;;;;2.63;0.70;;;;;;;;;;5045164;28;20040;-87
2023/07/18 13:52:57;;;;;;;2.30;0.90;;;;;;;;;;5047309;28;20038;-90
2023/07/18 13:55:23;;;;;;;1.23;0.70;;;;;;;;;;5054469;28;20487;-86
2023/07/18 13:57:49;;;;;;;1.98;0.63;;;;;;;;;;5048163;28;20120;-83
2023/07/18 14:00:15;;;;;;;2.70;1.17;;;;;;;;;;5053923;28;20032;-85
2023/07/18 14:02:41;;;;;;;3.47;1.52;;;;;;;;;;5054614;28;20041;-82
2023/07/18 14:05:07;;;;;;;1.38;0.82;;;;;;;;;;5046142;28;20484;-84
2023/07/18 14:07:34;;;;;;;2.08;1.05;;;;;;;;;;5052818;28;20045;-85
2023/07/18 14:10:01;;;;;;;4.43;1.20;;;;;;;;;;5049513;28;20086;-82
2023/07/18 14:12:27;;;;;;;6.63;1.15;;;;;;;;;;5056284;28;20060;-81
2023/07/18 14:14:53;;;;;;;3.22;0.88;;;;;;;;;;5058460;28;20050;-83
2023/07/18 14:17:19;;;;;;;2.85;0.90;;;;;;;;;;5059481;28;20058;-84
2023/07/18 14:19:45;;;;;;;1.83;0.73;;;;;;;;;;5050111;28;20384;-82
2023/07/18 14:22:15;;;;;;;1.30;0.63;;;;;;;;;;5048680;28;20037;-83
2023/07/18 14:24:41;;;;;;;;;;;;;;;;;;5052139;28;20088;-84
2023/07/18 14:27:08;;;;;;;2.10;0.80;;;;;;;;;;5050074;28;19955;-83
2023/07/18 14:29:34;;;;;;;3.00;0.90;;;;;;;;;;5026029;28;20053;-82
2023/07/18 14:32:00;;;;;;;2.72;0.90;;;;;;;;;;5047663;28;20029;-82
2023/07/18 14:34:26;;;;;;;3.05;0.90;;;;;;;;;;5054101;28;20048;-82
2023/07/18 14:36:52;;;;;;;1.55;0.47;;;;;;;;;;5054560;28;20041;-82
2023/07/18 14:39:18;;;;;;;3.22;1.00;;;;;;;;;;5046114;28;20047;-83